Time;durP1;ratioP1;P1;durP2;ratioP2;P2;SDS_P1;SDS_P2;PMS_P1;PMS_P2;Temp;Humidity;BMP_temperature;BMP_pressure;BME280_temperature;BME280_humidity;BME280_pressure;Samples;Min_cycle;Max_cycle;Signal;HPM_P1;HPM_P2
2022/08/31 00:04:55;;;;;;;3.75;1.80;;;8.10;99.90;;;;;;5036135;28;20029;-70
2022/08/31 00:07:21;;;;;;;3.40;2.17;;;8.10;99.90;;;;;;5036035;28;20022;-70
2022/08/31 00:09:46;;;;;;;1.70;1.35;;;8.10;99.90;;;;;;5035432;28;20083;-70
2022/08/31 00:12:12;;;;;;;3.83;1.88;;;8.10;99.90;;;;;;5036110;28;20388;-70
2022/08/31 00:14:38;;;;;;;1.98;1.45;;;8.10;99.90;;;;;;5035814;28;20101;-70
2022/08/31 00:17:04;;;;;;;3.03;1.90;;;8.10;99.90;;;;;;5035847;28;20035;-70
2022/08/31 00:19:29;;;;;;;2.65;1.80;;;8.10;99.90;;;;;;5035737;28;20067;-71
2022/08/31 00:21:55;;;;;;;4.78;1.80;;;8.10;99.90;;;;;;5036544;28;20025;-70
2022/08/31 00:24:21;;;;;;;3.78;2.10;;;8.00;99.90;;;;;;5036061;28;20025;-70
2022/08/31 00:26:46;;;;;;;3.25;2.08;;;8.00;99.90;;;;;;5036038;28;20021;-70
2022/08/31 00:29:12;;;;;;;2.05;1.67;;;7.90;99.90;;;;;;5035739;28;20036;-70
2022/08/31 00:31:38;;;;;;;3.65;2.17;;;7.80;99.90;;;;;;5035655;28;20437;-70
2022/08/31 00:34:04;;;;;;;3.33;1.92;;;7.80;99.90;;;;;;5035672;28;20022;-70
2022/08/31 00:36:30;;;;;;;4.30;2.10;;;7.80;99.90;;;;;;5034895;28;20018;-70
2022/08/31 00:38:56;;;;;;;2.83;1.98;;;7.80;99.90;;;;;;5035613;28;20065;-70
2022/08/31 00:41:26;;;;;;;2.40;1.77;;;7.80;99.90;;;;;;5035013;28;20095;-70
2022/08/31 00:43:53;;;;;;;3.13;1.80;;;7.80;99.90;;;;;;5033930;28;20030;-70
2022/08/31 00:46:31;;;;;;;2.85;1.90;;;7.90;99.90;;;;;;5034729;28;20474;-70
2022/08/31 00:49:00;;;;;;;4.65;2.38;;;7.90;99.90;;;;;;5034198;28;20083;-70
2022/08/31 00:51:27;;;;;;;2.97;2.20;;;8.00;99.90;;;;;;5031349;28;20029;-70
2022/08/31 00:53:53;;;;;;;2.00;1.80;;;8.00;99.90;;;;;;5029544;28;20529;-70
2022/08/31 00:56:19;;;;;;;3.47;2.50;;;8.00;99.90;;;;;;5028078;28;20057;-70
2022/08/31 00:58:47;;;;;;;3.55;2.47;;;8.00;99.90;;;;;;5014809;28;20032;-70
2022/08/31 01:01:13;;;;;;;9.07;2.15;;;8.00;99.90;;;;;;5024036;28;20040;-70
2022/08/31 01:03:40;;;;;;;3.65;2.33;;;8.00;99.90;;;;;;5035190;28;20100;-70
2022/08/31 01:06:06;;;;;;;3.45;2.47;;;8.10;99.90;;;;;;5034932;28;20021;-70
2022/08/31 01:08:32;;;;;;;4.85;2.55;;;8.10;99.90;;;;;;5035121;28;20401;-70
2022/08/31 01:10:59;;;;;;;15.07;3.25;;;8.20;99.90;;;;;;5034166;28;20029;-70
2022/08/31 01:13:25;;;;;;;5.05;3.63;;;8.30;99.90;;;;;;5035289;28;20442;-70
2022/08/31 01:15:55;;;;;;;4.65;3.13;;;8.40;99.90;;;;;;5035337;28;20021;-70
2022/08/31 01:18:23;;;;;;;5.30;2.80;;;8.50;99.90;;;;;;5034761;28;20031;-70
2022/08/31 01:21:14;;;;;;;3.10;2.72;;;8.50;99.90;;;;;;5034520;28;20071;-70
2022/08/31 01:23:42;;;;;;;4.60;3.45;;;8.60;99.90;;;;;;5034335;28;20417;-70
2022/08/31 01:26:12;;;;;;;7.45;3.47;;;8.80;99.90;;;;;;5034571;28;20525;-70
2022/08/31 01:28:37;;;;;;;4.85;3.80;;;8.80;99.90;;;;;;5034614;28;20029;-70
2022/08/31 01:31:12;;;;;;;4.38;3.08;;;9.00;99.90;;;;;;5034443;28;20079;-70
2022/08/31 01:33:38;;;;;;;6.07;3.70;;;9.00;99.90;;;;;;5034588;28;20028;-70
2022/08/31 01:36:06;;;;;;;5.95;3.33;;;9.10;99.90;;;;;;5034428;28;20025;-70
2022/08/31 01:38:34;;;;;;;5.18;3.38;;;9.00;99.90;;;;;;5033836;28;20025;-70
2022/08/31 01:41:01;;;;;;;7.57;3.83;;;9.00;99.90;;;;;;5034157;28;20021;-71
2022/08/31 01:43:28;;;;;;;3.75;2.80;;;8.90;99.90;;;;;;5034269;28;20071;-71
2022/08/31 01:45:54;;;;;;;6.13;3.38;;;8.80;99.90;;;;;;5034437;28;20378;-70
2022/08/31 01:48:20;;;;;;;5.25;3.38;;;8.80;99.90;;;;;;5034227;28;20028;-70
2022/08/31 01:50:46;;;;;;;3.65;3.25;;;8.80;99.90;;;;;;5034107;28;20025;-70
2022/08/31 01:53:12;;;;;;;4.20;3.53;;;8.80;99.90;;;;;;5032921;28;20099;-70
2022/08/31 01:55:38;;;;;;;9.65;3.88;;;8.70;99.90;;;;;;5034056;28;20024;-70
2022/08/31 01:58:03;;;;;;;4.18;3.35;;;8.70;99.90;;;;;;5034311;28;20033;-70
2022/08/31 02:00:30;;;;;;;8.23;3.33;;;8.70;99.90;;;;;;5034228;28;20087;-71
2022/08/31 02:02:58;;;;;;;5.47;3.92;;;8.60;99.90;;;;;;5033970;28;20029;-71
2022/08/31 02:05:24;;;;;;;4.38;3.35;;;8.60;99.90;;;;;;5033390;28;20088;-71
2022/08/31 02:07:50;;;;;;;4.45;3.65;;;8.50;99.90;;;;;;5033867;28;20389;-71
2022/08/31 02:10:15;;;;;;;7.82;3.85;;;8.50;99.90;;;;;;5034120;28;20112;-71
2022/08/31 02:12:41;;;;;;;7.18;3.83;;;8.40;99.90;;;;;;5033724;28;20025;-71
2022/08/31 02:15:08;;;;;;;5.45;3.63;;;8.40;99.90;;;;;;5033808;28;20021;-71
2022/08/31 02:17:33;;;;;;;5.88;3.97;;;8.30;99.90;;;;;;5034276;28;20025;-71
2022/08/31 02:19:59;;;;;;;5.22;3.53;;;8.30;99.90;;;;;;5033159;28;20443;-71
2022/08/31 02:22:24;;;;;;;5.93;3.58;;;8.20;99.90;;;;;;5033941;28;20029;-71
2022/08/31 02:24:50;;;;;;;5.90;3.83;;;8.10;99.90;;;;;;5033734;28;20493;-71
2022/08/31 02:27:15;;;;;;;4.22;3.03;;;8.10;99.90;;;;;;5033515;28;20035;-71
2022/08/31 02:29:41;;;;;;;5.68;3.70;;;8.00;99.90;;;;;;5032935;28;20029;-71
2022/08/31 02:32:07;;;;;;;3.80;3.42;;;8.00;99.90;;;;;;5033671;28;20028;-71
2022/08/31 02:34:33;;;;;;;4.97;3.47;;;8.00;99.90;;;;;;5033541;28;20044;-71
2022/08/31 02:36:58;;;;;;;4.55;3.63;;;7.90;99.90;;;;;;5033787;28;20021;-71
2022/08/31 02:39:24;;;;;;;6.53;3.72;;;8.00;99.90;;;;;;5033652;28;20028;-71
2022/08/31 02:41:50;;;;;;;4.72;3.90;;;7.90;99.90;;;;;;5032880;28;20021;-71
2022/08/31 02:44:15;;;;;;;5.45;3.13;;;7.80;99.90;;;;;;5033707;28;20034;-71
2022/08/31 02:46:41;;;;;;;6.57;4.00;;;7.80;99.90;;;;;;5034081;28;20033;-71
2022/08/31 02:49:06;;;;;;;7.75;4.63;;;7.80;99.90;;;;;;5033253;28;20481;-71
2022/08/31 02:51:32;;;;;;;6.60;4.00;;;7.90;99.90;;;;;;5032992;28;20370;-71
2022/08/31 02:53:57;;;;;;;5.78;4.10;;;7.90;99.90;;;;;;5033199;28;20029;-71
2022/08/31 02:56:24;;;;;;;11.57;4.38;;;7.90;99.90;;;;;;5033247;28;20456;-71
2022/08/31 02:58:53;;;;;;;9.15;4.90;;;7.90;99.90;;;;;;5032731;28;20028;-71
2022/08/31 03:01:21;;;;;;;12.18;5.32;;;7.90;99.90;;;;;;5033873;28;20026;-71
2022/08/31 03:03:47;;;;;;;10.20;4.78;;;8.00;99.90;;;;;;5033153;28;20450;-71
2022/08/31 03:06:12;;;;;;;6.15;4.93;;;8.00;99.90;;;;;;5036158;28;20485;-71
2022/08/31 03:08:38;;;;;;;7.00;5.10;;;8.00;99.90;;;;;;5035335;28;20072;-71
2022/08/31 03:11:04;;;;;;;12.40;5.10;;;8.20;99.90;;;;;;5037150;28;20053;-71
2022/08/31 03:13:29;;;;;;;6.28;4.07;;;8.20;99.90;;;;;;5037156;28;20033;-71
2022/08/31 03:15:55;;;;;;;7.97;4.80;;;8.20;99.90;;;;;;5037368;28;20450;-71
2022/08/31 03:18:21;;;;;;;7.88;5.80;;;8.20;99.90;;;;;;5036555;28;20490;-71
2022/08/31 03:20:47;;;;;;;5.70;4.75;;;8.30;99.90;;;;;;5037142;28;20124;-71
2022/08/31 03:23:14;;;;;;;6.85;5.47;;;8.30;99.90;;;;;;5037189;28;20068;-71
2022/08/31 03:25:40;;;;;;;8.52;4.90;;;8.20;99.90;;;;;;5037259;28;20056;-71
2022/08/31 03:28:05;;;;;;;8.10;4.20;;;8.20;99.90;;;;;;5036896;28;20029;-70
2022/08/31 03:30:31;;;;;;;6.35;4.72;;;8.10;99.90;;;;;;5036671;28;20400;-71
2022/08/31 03:32:57;;;;;;;5.97;4.47;;;8.20;99.90;;;;;;5036750;28;20036;-71
2022/08/31 03:35:22;;;;;;;9.88;5.70;;;8.20;99.90;;;;;;5036876;28;20534;-70
2022/08/31 03:37:48;;;;;;;6.78;5.18;;;8.30;99.90;;;;;;5036997;28;20024;-71
2022/08/31 03:40:14;;;;;;;6.80;4.72;;;8.40;99.90;;;;;;5036606;28;20022;-72
2022/08/31 03:42:40;;;;;;;9.88;5.10;;;8.30;99.90;;;;;;5036159;28;20021;-71
2022/08/31 03:45:07;;;;;;;8.52;5.53;;;8.30;99.90;;;;;;5037153;28;20033;-72
2022/08/31 03:47:34;;;;;;;7.43;5.55;;;8.30;99.90;;;;;;5036729;28;20025;-72
2022/08/31 03:50:02;;;;;;;7.90;5.40;;;8.30;99.90;;;;;;5036390;28;20033;-71
2022/08/31 03:52:28;;;;;;;16.33;5.82;;;8.40;99.90;;;;;;5036397;28;20076;-71
2022/08/31 03:54:53;;;;;;;8.70;6.28;;;8.40;99.90;;;;;;5036451;28;20025;-71
2022/08/31 03:57:19;;;;;;;9.48;6.32;;;8.40;99.90;;;;;;5035836;28;20025;-71
2022/08/31 03:59:45;;;;;;;20.17;7.07;;;8.40;99.90;;;;;;5036555;28;20108;-71
2022/08/31 04:02:10;;;;;;;9.95;6.28;;;8.50;99.90;;;;;;5036340;28;20432;-71
2022/08/31 04:04:36;;;;;;;9.27;6.32;;;8.50;99.90;;;;;;5036200;28;20456;-71
2022/08/31 04:07:01;;;;;;;6.45;5.05;;;8.50;99.90;;;;;;5035621;28;20052;-71
2022/08/31 04:09:27;;;;;;;6.47;4.78;;;8.50;99.90;;;;;;5036034;28;20022;-71
2022/08/31 04:11:52;;;;;;;6.13;4.82;;;8.30;99.90;;;;;;5036112;28;20022;-72
2022/08/31 04:14:18;;;;;;;6.53;4.85;;;8.20;99.90;;;;;;5035963;28;20385;-72
2022/08/31 04:16:43;;;;;;;5.38;4.15;;;8.10;99.90;;;;;;5035133;28;20033;-72
2022/08/31 04:19:10;;;;;;;8.18;3.80;;;8.00;99.90;;;;;;5036203;28;20156;-72
2022/08/31 04:21:36;;;;;;;5.97;4.35;;;7.90;99.90;;;;;;5035410;28;20025;-71
2022/08/31 04:24:02;;;;;;;5.53;4.28;;;7.80;99.90;;;;;;5035842;28;20025;-71
2022/08/31 04:26:34;;;;;;;6.95;4.57;;;7.80;99.90;;;;;;5036103;28;20389;-71
2022/08/31 04:29:00;;;;;;;5.95;4.30;;;7.70;99.90;;;;;;5035792;28;20025;-71
2022/08/31 04:31:27;;;;;;;10.10;5.13;;;7.60;99.90;;;;;;5035548;28;20026;-71
2022/08/31 04:33:55;;;;;;;4.90;4.40;;;7.60;99.90;;;;;;5035047;28;20026;-71
2022/08/31 04:36:22;;;;;;;5.53;4.72;;;7.60;99.90;;;;;;5035921;28;20063;-71
2022/08/31 04:38:51;;;;;;;8.63;4.80;;;7.60;99.90;;;;;;5035867;28;20048;-71
2022/08/31 04:41:18;;;;;;;7.32;4.40;;;7.60;99.90;;;;;;5035427;28;20079;-71
2022/08/31 04:43:49;;;;;;;6.88;4.88;;;7.60;99.90;;;;;;5035462;28;20083;-71
2022/08/31 04:46:16;;;;;;;6.78;4.03;;;7.60;99.90;;;;;;5035980;28;20025;-71
2022/08/31 04:48:42;;;;;;;7.30;4.45;;;7.60;99.90;;;;;;5034775;28;20112;-71
2022/08/31 04:51:14;;;;;;;10.23;4.70;;;7.70;99.90;;;;;;5035664;28;20057;-71
2022/08/31 04:53:40;;;;;;;5.90;4.43;;;7.70;99.90;;;;;;5035218;28;20033;-71
2022/08/31 04:56:12;;;;;;;5.50;4.00;;;7.80;99.90;;;;;;5035550;28;20053;-71
2022/08/31 04:58:38;;;;;;;4.18;3.63;;;7.80;99.90;;;;;;5035219;28;20024;-71
2022/08/31 05:01:08;;;;;;;5.15;4.60;;;7.80;99.90;;;;;;5034994;28;20029;-72
2022/08/31 05:03:33;;;;;;;4.85;4.20;;;7.90;99.90;;;;;;5034633;28;20025;-71
2022/08/31 05:05:59;;;;;;;6.07;4.28;;;7.90;99.90;;;;;;5035629;28;20083;-71
2022/08/31 05:08:24;;;;;;;7.65;4.45;;;7.90;99.90;;;;;;5035024;28;20028;-71
2022/08/31 05:10:50;;;;;;;6.30;3.95;;;7.90;99.90;;;;;;5035440;28;20386;-71
2022/08/31 05:13:16;;;;;;;5.53;4.03;;;7.90;99.90;;;;;;5034837;28;20025;-71
2022/08/31 05:15:42;;;;;;;11.88;4.00;;;8.00;99.90;;;;;;5034966;28;20099;-71
2022/08/31 05:18:09;;;;;;;6.88;5.03;;;8.10;99.90;;;;;;5034791;28;20021;-71
2022/08/31 05:20:36;;;;;;;8.75;4.57;;;8.10;99.90;;;;;;5034845;28;20028;-71
2022/08/31 05:23:02;;;;;;;7.50;5.07;;;8.30;99.90;;;;;;5034707;28;20029;-71
2022/08/31 05:25:27;;;;;;;9.63;4.82;;;8.30;99.90;;;;;;5034210;28;20033;-71
2022/08/31 05:27:54;;;;;;;9.02;4.28;;;8.40;99.90;;;;;;5034677;28;20056;-71
2022/08/31 05:30:20;;;;;;;7.53;4.60;;;8.50;99.90;;;;;;5034554;28;20026;-71
2022/08/31 05:32:46;;;;;;;7.60;4.18;;;8.60;99.90;;;;;;5034449;28;20481;-71
2022/08/31 05:35:12;;;;;;;5.03;4.53;;;8.70;99.90;;;;;;5034464;28;20049;-71
2022/08/31 05:37:38;;;;;;;5.32;4.32;;;8.80;99.90;;;;;;5033981;28;20029;-71
2022/08/31 05:40:05;;;;;;;5.97;4.05;;;8.90;99.90;;;;;;5034368;28;20062;-71
2022/08/31 05:42:30;;;;;;;5.72;3.70;;;9.10;99.90;;;;;;5034374;28;20087;-71
2022/08/31 05:44:56;;;;;;;6.60;4.78;;;9.20;99.90;;;;;;5034260;28;20465;-71
2022/08/31 05:47:22;;;;;;;5.03;4.50;;;9.40;99.90;;;;;;5034288;28;20018;-71
2022/08/31 05:49:47;;;;;;;6.78;4.22;;;9.50;99.90;;;;;;5032886;28;20021;-71
2022/08/31 05:52:13;;;;;;;7.97;5.13;;;9.70;99.90;;;;;;5033507;28;20496;-71
2022/08/31 05:54:39;;;;;;;9.50;4.47;;;9.90;99.90;;;;;;5034191;28;20052;-71
2022/08/31 05:57:05;;;;;;;9.65;5.90;;;10.00;99.90;;;;;;5034629;28;20076;-71
2022/08/31 05:59:32;;;;;;;9.07;5.47;;;10.20;99.90;;;;;;5033850;28;20501;-71
2022/08/31 06:01:58;;;;;;;10.23;6.07;;;10.40;99.90;;;;;;5034154;28;20038;-71
2022/08/31 06:04:25;;;;;;;12.77;6.22;;;10.60;99.90;;;;;;5033665;28;20028;-71
2022/08/31 06:06:51;;;;;;;12.00;6.32;;;10.90;99.90;;;;;;5032946;28;20427;-71
2022/08/31 06:09:16;;;;;;;7.50;5.53;;;11.00;99.90;;;;;;5033835;28;20109;-71
2022/08/31 06:11:42;;;;;;;7.90;5.72;;;11.20;99.90;;;;;;5033831;28;20381;-71
2022/08/31 06:14:09;;;;;;;9.50;5.45;;;11.30;99.90;;;;;;5033467;28;20030;-72
2022/08/31 06:16:37;;;;;;;11.57;5.47;;;11.50;99.90;;;;;;5034053;28;20036;-72
2022/08/31 06:19:06;;;;;;;9.68;6.28;;;11.60;99.90;;;;;;5033715;28;20025;-72
2022/08/31 06:21:35;;;;;;;6.85;5.22;;;11.80;99.90;;;;;;5033646;28;20084;-72
2022/08/31 06:24:02;;;;;;;9.30;5.90;;;12.00;99.90;;;;;;5033665;28;20022;-71
2022/08/31 06:26:30;;;;;;;7.15;4.95;;;12.10;99.90;;;;;;5033829;28;20026;-72
2022/08/31 06:28:58;;;;;;;5.75;5.15;;;12.30;99.90;;;;;;5033135;28;20568;-72
2022/08/31 06:31:31;;;;;;;7.63;5.65;;;12.50;99.90;;;;;;5033500;28;20474;-72
2022/08/31 06:33:58;;;;;;;5.70;4.57;;;12.60;99.90;;;;;;5033549;28;20029;-72
2022/08/31 06:36:26;;;;;;;6.43;4.40;;;12.80;99.90;;;;;;5031679;28;20030;-71
2022/08/31 06:38:54;;;;;;;8.05;4.35;;;13.00;99.90;;;;;;5033439;28;20044;-72
2022/08/31 06:41:23;;;;;;;13.48;4.85;;;13.20;99.90;;;;;;5033019;28;20024;-71
2022/08/31 06:43:48;;;;;;;7.13;3.85;;;13.40;99.90;;;;;;5032990;28;20025;-72
2022/08/31 06:46:16;;;;;;;4.43;2.97;;;13.60;99.90;;;;;;5033532;28;20029;-71
2022/08/31 06:48:42;;;;;;;4.85;3.70;;;13.90;99.90;;;;;;5033609;28;20079;-71
2022/08/31 06:51:08;;;;;;;4.43;2.95;;;14.10;99.90;;;;;;5029675;28;20030;-71
2022/08/31 06:53:36;;;;;;;3.88;2.67;;;14.30;99.90;;;;;;5030846;28;20430;-71
2022/08/31 06:56:06;;;;;;;7.03;3.00;;;14.40;99.90;;;;;;5031820;28;20343;-72
2022/08/31 06:58:32;;;;;;;4.40;2.70;;;14.70;99.90;;;;;;5031638;28;20450;-71
2022/08/31 07:01:05;;;;;;;4.38;2.28;;;14.90;99.90;;;;;;5033154;28;20026;-72
2022/08/31 07:03:33;;;;;;;3.45;2.17;;;15.20;99.90;;;;;;5033099;28;20025;-71
2022/08/31 07:06:16;;;;;;;3.63;2.05;;;15.50;99.90;;;;;;5033392;28;20120;-71
2022/08/31 07:08:44;;;;;;;1.92;1.63;;;15.60;99.90;;;;;;5033659;28;20021;-71
2022/08/31 07:11:15;;;;;;;3.97;2.10;;;15.90;99.90;;;;;;5032950;28;20037;-71
2022/08/31 07:13:41;;;;;;;11.13;1.65;;;16.20;99.90;;;;;;5033653;28;20030;-71
2022/08/31 07:16:10;;;;;;;2.80;1.33;;;16.50;99.90;;;;;;5033422;28;20028;-71
2022/08/31 07:18:36;;;;;;;4.35;1.20;;;16.70;99.90;;;;;;5032845;28;20025;-71
2022/08/31 07:21:18;;;;;;;2.42;1.38;;;16.90;99.90;;;;;;5033205;28;20092;-71
2022/08/31 07:23:45;;;;;;;4.47;1.10;;;17.10;99.90;;;;;;5033549;28;20040;-71
2022/08/31 07:26:15;;;;;;;5.00;1.17;;;17.30;99.90;;;;;;5033428;28;20108;-71
2022/08/31 07:28:44;;;;;;;5.15;1.67;;;17.50;99.90;;;;;;5033613;28;20108;-71
2022/08/31 07:31:14;;;;;;;4.78;1.30;;;17.70;99.90;;;;;;5032577;28;20052;-70
2022/08/31 07:33:40;;;;;;;3.80;1.20;;;18.00;99.90;;;;;;5025418;28;20469;-70
2022/08/31 07:36:11;;;;;;;1.95;1.27;;;18.10;99.90;;;;;;5033719;28;20037;-70
2022/08/31 07:44:08;;;;;;;2.40;0.95;;;18.60;99.90;;;;;;5033040;28;20106;-70
2022/08/31 07:46:34;;;;;;;2.38;1.00;;;18.90;99.90;;;;;;5031195;28;20026;-70
2022/08/31 07:49:00;;;;;;;10.75;1.65;;;19.00;99.90;;;;;;5032916;28;20026;-70
2022/08/31 07:51:26;;;;;;;2.78;1.33;;;19.10;99.90;;;;;;5032806;28;20030;-71
2022/08/31 07:53:53;;;;;;;10.13;1.40;;;19.40;99.90;;;;;;5036330;28;20039;-71
2022/08/31 07:56:20;;;;;;;2.58;0.90;;;19.60;99.90;;;;;;5035641;28;20048;-70
2022/08/31 07:58:48;;;;;;;7.80;1.15;;;19.60;99.90;;;;;;5036574;28;20045;-70
2022/08/31 08:01:15;;;;;;;6.57;1.05;;;19.70;99.90;;;;;;5041599;22;20050;-69
2022/08/31 08:03:43;;;;;;;4.10;1.00;;;19.90;99.90;;;;;;5016518;28;20029;-68
2022/08/31 08:06:11;;;;;;;5.93;1.13;;;20.00;99.90;;;;;;5015850;28;20026;-68
2022/08/31 08:08:37;;;;;;;0.80;0.70;;;20.00;99.90;;;;;;5016384;28;20036;-68
2022/08/31 08:11:05;;;;;;;1.67;0.90;;;20.20;99.90;;;;;;5016408;28;20030;-69
2022/08/31 08:13:31;;;;;;;5.85;0.70;;;20.30;99.90;;;;;;5016840;28;20068;-69
2022/08/31 08:15:57;;;;;;;2.45;1.10;;;20.40;99.90;;;;;;5016301;28;20018;-69
2022/08/31 08:18:22;;;;;;;2.28;0.80;;;20.70;99.90;;;;;;5015802;28;20032;-69
2022/08/31 08:20:50;;;;;;;2.65;0.90;;;20.90;99.90;;;;;;5016174;28;20026;-69
2022/08/31 08:23:17;;;;;;;2.70;0.68;;;21.20;99.90;;;;;;5016059;28;20029;-69
2022/08/31 08:25:44;;;;;;;1.40;0.63;;;21.10;99.90;;;;;;5016146;28;20068;-69
2022/08/31 08:28:19;;;;;;;1.77;0.47;;;21.10;99.90;;;;;;5016085;28;20036;-69
2022/08/31 08:30:47;;;;;;;0.50;0.47;;;21.20;99.90;;;;;;5015730;28;20040;-68
2022/08/31 08:33:14;;;;;;;1.50;0.60;;;20.90;99.90;;;;;;5016231;28;20053;-69
2022/08/31 08:35:40;;;;;;;4.80;0.50;;;20.70;99.90;;;;;;5016068;28;20022;-69
2022/08/31 08:38:06;;;;;;;1.90;0.70;;;20.50;99.90;;;;;;5015615;28;20034;-69
2022/08/31 08:40:41;;;;;;;3.08;0.47;;;20.40;99.90;;;;;;5016261;28;20026;-69
2022/08/31 08:43:10;;;;;;;0.47;0.47;;;20.50;99.90;;;;;;5015801;28;20029;-69
2022/08/31 08:45:36;;;;;;;4.13;0.60;;;20.80;99.90;;;;;;5015731;28;20034;-69
2022/08/31 08:48:05;;;;;;;0.98;0.70;;;21.20;99.90;;;;;;5015694;28;20033;-69
2022/08/31 08:50:31;;;;;;;1.15;0.70;;;21.70;99.90;;;;;;5015779;28;20466;-70
2022/08/31 08:53:02;;;;;;;0.98;0.40;;;22.00;99.90;;;;;;5014924;28;20056;-70
2022/08/31 08:55:34;;;;;;;1.23;0.50;;;22.10;99.90;;;;;;5015577;28;20014;-70
2022/08/31 08:58:04;;;;;;;3.13;0.55;;;22.40;99.90;;;;;;5015768;28;20018;-69
2022/08/31 09:00:32;;;;;;;0.52;0.50;;;22.80;99.90;;;;;;5015301;28;20022;-69
2022/08/31 09:03:15;;;;;;;2.17;0.38;;;23.20;99.90;;;;;;5014579;28;20089;-69
2022/08/31 09:05:44;;;;;;;0.70;0.50;;;23.30;99.90;;;;;;5015628;28;20355;-68
2022/08/31 09:08:34;;;;;;;1.83;0.75;;;23.50;99.90;;;;;;5015515;28;20520;-69
2022/08/31 09:11:16;;;;;;;3.53;0.93;;;23.50;99.90;;;;;;5014731;28;20036;-69
2022/08/31 09:14:05;;;;;;;1.00;0.50;;;23.10;99.90;;;;;;5015261;28;20022;-69
2022/08/31 09:16:55;;;;;;;1.58;0.70;;;22.30;99.90;;;;;;5014991;28;20064;-69
2022/08/31 09:19:20;;;;;;;0.95;0.57;;;21.80;99.90;;;;;;5015460;28;20026;-69
2022/08/31 09:21:48;;;;;;;1.73;0.80;;;21.20;99.90;;;;;;5013694;28;20112;-69
2022/08/31 09:24:18;;;;;;;3.08;0.80;;;20.70;99.90;;;;;;5014501;28;20029;-69
2022/08/31 09:27:19;;;;;;;2.28;1.30;;;20.40;99.90;;;;;;5015236;28;20068;-69
2022/08/31 09:29:54;;;;;;;2.72;0.70;;;20.00;99.90;;;;;;5015019;28;20028;-68
2022/08/31 09:32:30;;;;;;;0.77;0.75;;;20.20;99.90;;;;;;5014794;28;20036;-68
2022/08/31 09:35:02;;;;;;;0.82;0.55;;;21.00;99.90;;;;;;5015012;28;20022;-68
2022/08/31 09:37:36;;;;;;;1.52;0.90;;;21.70;99.90;;;;;;5015027;28;20382;-69
2022/08/31 09:40:17;;;;;;;0.90;0.70;;;22.40;99.90;;;;;;5014242;28;20021;-69
2022/08/31 09:42:46;;;;;;;1.08;0.80;;;23.00;99.90;;;;;;5014716;28;20022;-69
2022/08/31 09:45:28;;;;;;;1.00;0.90;;;23.40;99.90;;;;;;5014536;28;20029;-69
2022/08/31 09:47:59;;;;;;;1.23;0.93;;;23.50;99.90;;;;;;5014720;28;20036;-69
2022/08/31 09:50:33;;;;;;;1.17;0.93;;;23.60;99.90;;;;;;5014193;28;20159;-70
2022/08/31 09:56:11;;;;;;;1.13;0.73;;;24.30;99.90;;;;;;5014776;28;20397;-70
2022/08/31 09:58:37;;;;;;;2.58;1.00;;;24.60;99.90;;;;;;5014432;28;20022;-70
2022/08/31 10:01:11;;;;;;;3.20;0.70;;;24.30;99.90;;;;;;5013890;28;20038;-70
2022/08/31 10:03:43;;;;;;;3.22;0.70;;;24.20;99.90;;;;;;5014501;28;20539;-70
2022/08/31 10:06:33;;;;;;;5.80;0.90;;;24.50;99.90;;;;;;5014612;28;20537;-70
2022/08/31 10:09:02;;;;;;;1.45;1.25;;;24.80;99.90;;;;;;5014563;28;20030;-70
2022/08/31 10:11:31;;;;;;;3.03;1.00;;;25.10;99.90;;;;;;5014387;28;20025;-68
2022/08/31 10:14:03;;;;;;;1.20;0.80;;;25.20;99.90;;;;;;5013375;28;20079;-70
2022/08/31 10:16:41;;;;;;;1.48;0.80;;;25.20;99.90;;;;;;5014072;28;20037;-70
2022/08/31 10:19:17;;;;;;;5.38;0.82;;;24.90;99.90;;;;;;5014354;28;20124;-69
2022/08/31 10:22:24;;;;;;;3.60;0.80;;;24.60;99.90;;;;;;5013984;28;20058;-69
2022/08/31 10:25:10;;;;;;;1.67;0.95;;;24.80;99.90;;;;;;5002290;28;20092;-69
2022/08/31 10:27:51;;;;;;;0.93;0.80;;;25.20;99.90;;;;;;5013946;28;20557;-70
2022/08/31 10:30:37;;;;;;;3.25;1.20;;;25.10;99.90;;;;;;5014073;28;20048;-70
2022/08/31 10:33:08;;;;;;;2.55;1.00;;;24.00;99.90;;;;;;5014047;28;20022;-69
2022/08/31 10:35:56;;;;;;;1.85;1.10;;;24.00;99.90;;;;;;5013942;28;20076;-69
2022/08/31 10:38:45;;;;;;;2.90;1.10;;;24.40;99.90;;;;;;5014036;28;20029;-69
2022/08/31 10:41:16;;;;;;;1.88;1.10;;;24.70;99.90;;;;;;5013795;28;20017;-69
2022/08/31 10:44:25;;;;;;;3.00;0.90;;;24.60;99.90;;;;;;5013634;28;20108;-69
2022/08/31 10:46:53;;;;;;;2.05;1.20;;;24.40;99.90;;;;;;4972589;28;20027;-69
2022/08/31 10:49:20;;;;;;;1.90;1.00;;;23.70;99.90;;;;;;5008293;28;20482;-69
2022/08/31 10:51:58;;;;;;;3.80;0.90;;;23.20;99.90;;;;;;5013869;28;20030;-69
2022/08/31 10:54:54;;;;;;;5.95;1.20;;;23.40;99.90;;;;;;5013083;28;20026;-68
2022/08/31 10:57:47;;;;;;;1.77;1.00;;;24.20;99.90;;;;;;5013998;28;20025;-68
2022/08/31 11:03:24;;;;;;;4.15;0.98;;;24.90;99.90;;;;;;5013836;28;20045;-69
2022/08/31 11:06:00;;;;;;;1.85;1.17;;;25.00;99.90;;;;;;5012969;28;20029;-69
2022/08/31 11:08:35;;;;;;;3.58;0.82;;;25.20;99.90;;;;;;5014322;28;20097;-69
2022/08/31 11:11:06;;;;;;;0.90;0.60;;;25.10;99.90;;;;;;5013344;28;20026;-69
2022/08/31 11:14:00;;;;;;;2.33;0.88;;;24.80;99.90;;;;;;5013651;28;20022;-69
2022/08/31 11:16:37;;;;;;;1.83;0.90;;;24.20;99.90;;;;;;5013377;28;20551;-69
2022/08/31 11:19:27;;;;;;;6.47;1.10;;;23.30;99.90;;;;;;5012868;28;20030;-69
2022/08/31 11:22:33;;;;;;;0.85;0.80;;;22.50;99.90;;;;;;5013371;28;20045;-69
2022/08/31 11:25:36;;;;;;;1.55;0.90;;;23.00;99.90;;;;;;5013073;28;20018;-69
2022/08/31 11:28:10;;;;;;;3.63;0.82;;;22.70;99.90;;;;;;5016770;28;20022;-69
2022/08/31 11:30:44;;;;;;;1.50;1.10;;;22.30;99.90;;;;;;5017424;28;20065;-69
2022/08/31 11:33:18;;;;;;;1.67;0.98;;;22.70;99.90;;;;;;5017020;28;20033;-69
2022/08/31 11:36:01;;;;;;;4.57;1.00;;;23.70;99.90;;;;;;5017277;28;20030;-69
2022/08/31 11:38:55;;;;;;;2.33;0.87;;;24.60;99.90;;;;;;5017189;28;20029;-70
2022/08/31 11:41:45;;;;;;;1.05;0.77;;;25.20;99.90;;;;;;5016809;28;20386;-70
2022/08/31 11:44:30;;;;;;;8.10;1.23;;;25.90;99.90;;;;;;5016700;28;20092;-70
2022/08/31 11:47:25;;;;;;;0.98;0.82;;;26.50;99.90;;;;;;5016812;28;20552;-69
2022/08/31 11:49:54;;;;;;;1.13;0.85;;;26.80;99.20;;;;;;5017035;28;20034;-69
2022/08/31 11:52:21;;;;;;;1.35;0.88;;;27.30;98.50;;;;;;5016904;28;20029;-69
2022/08/31 11:54:49;;;;;;;1.33;0.70;;;27.80;97.30;;;;;;5017255;28;20442;-69
2022/08/31 11:57:23;;;;;;;3.70;1.05;;;27.10;95.70;;;;;;5016091;28;20089;-70
2022/08/31 11:59:50;;;;;;;1.00;0.90;;;26.60;97.60;;;;;;5016667;28;20030;-69
2022/08/31 12:02:19;;;;;;;0.95;0.73;;;25.90;97.60;;;;;;5017375;28;20049;-70
2022/08/31 12:04:50;;;;;;;1.10;0.85;;;26.20;97.60;;;;;;5015933;28;20048;-69
2022/08/31 12:07:31;;;;;;;0.80;0.80;;;26.60;96.90;;;;;;5016554;28;20030;-70
2022/08/31 12:10:08;;;;;;;1.05;0.90;;;27.20;95.70;;;;;;5016582;28;20396;-70
2022/08/31 12:12:49;;;;;;;1.20;0.77;;;27.40;94.70;;;;;;5016581;28;20030;-68
2022/08/31 12:15:35;;;;;;;4.05;0.80;;;27.30;95.40;;;;;;5016185;28;20478;-68
2022/08/31 12:18:08;;;;;;;1.10;0.70;;;27.70;93.80;;;;;;5015952;28;20425;-69
2022/08/31 12:23:56;;;;;;;2.42;1.20;;;26.80;93.50;;;;;;5016335;28;20406;-69
2022/08/31 12:26:47;;;;;;;0.98;0.77;;;27.10;95.60;;;;;;5016019;28;20497;-70
2022/08/31 12:29:19;;;;;;;0.98;0.82;;;28.20;93.00;;;;;;5016092;28;20030;-69
2022/08/31 12:32:02;;;;;;;5.82;1.00;;;27.50;92.00;;;;;;5015892;28;20022;-69
2022/08/31 12:34:28;;;;;;;6.93;1.10;;;26.30;93.60;;;;;;5015880;28;20032;-69
2022/08/31 12:36:54;;;;;;;0.50;0.50;;;25.10;95.80;;;;;;5015874;28;20030;-69
2022/08/31 12:39:27;;;;;;;2.28;0.82;;;24.40;96.10;;;;;;5015147;28;20351;-69
2022/08/31 12:41:59;;;;;;;4.10;1.20;;;23.80;98.20;;;;;;5015068;28;20026;-69
2022/08/31 12:44:37;;;;;;;2.35;0.95;;;23.40;99.20;;;;;;5015684;28;20433;-69
2022/08/31 12:47:22;;;;;;;9.10;0.77;;;24.20;99.90;;;;;;5015954;28;20041;-69
2022/08/31 12:49:51;;;;;;;6.78;1.13;;;26.00;98.90;;;;;;5015861;28;20398;-69
2022/08/31 12:52:53;;;;;;;2.38;0.90;;;27.70;94.00;;;;;;5015526;28;20402;-69
2022/08/31 12:55:33;;;;;;;1.98;1.30;;;29.10;93.80;;;;;;5015003;28;20108;-69
2022/08/31 12:58:21;;;;;;;1.75;1.05;;;29.40;91.70;;;;;;5015492;28;20026;-69
2022/08/31 13:00:47;;;;;;;1.75;0.73;;;27.90;92.40;;;;;;5010273;28;20532;-69
2022/08/31 13:03:27;;;;;;;6.05;1.05;;;26.40;93.30;;;;;;5015928;28;20030;-69
2022/08/31 13:06:07;;;;;;;1.48;0.80;;;25.40;95.50;;;;;;5014930;28;20029;-69
2022/08/31 13:08:47;;;;;;;3.20;0.82;;;24.50;97.40;;;;;;5015657;28;20025;-69
2022/08/31 13:11:23;;;;;;;8.77;0.60;;;24.00;99.70;;;;;;5015254;28;20022;-69
2022/08/31 13:13:50;;;;;;;4.93;1.05;;;23.60;99.10;;;;;;5015348;28;20037;-69
2022/08/31 13:16:17;;;;;;;5.78;0.88;;;23.10;99.90;;;;;;5014567;28;20030;-69
2022/08/31 13:18:45;;;;;;;3.65;0.77;;;22.90;99.90;;;;;;5015328;28;20553;-69
2022/08/31 13:21:11;;;;;;;5.97;0.85;;;23.70;99.90;;;;;;5014980;28;20022;-69
2022/08/31 13:23:45;;;;;;;5.90;0.93;;;24.80;99.90;;;;;;5010995;28;20117;-70
2022/08/31 13:26:21;;;;;;;1.98;0.68;;;25.40;98.90;;;;;;5004662;28;20026;-69